KWWD/WWD METAR and TAF weather

Enter ICAO airport designator
Station Type Date Time Source
KWWD METAR 2019/02/22 21:55 UTC NOAA

KWWD 222155Z AUTO 31004KT 10SM CLR 06/M02 A3039 RMK AO2 SLP293 T00611022


Station Type Date Time Source
KWWD Decoded METAR 2019/02/22 21:55 UTC NOAA

Wildwood, Cape May County Airport, NJ, United States (KWWD) 39-01N 074-55W
Feb 22, 2019 - 04:55 PM EST / 2019.02.22 2155 UTC
Wind: from the NW (310 degrees) at 5 MPH (4 KT):0
Visibility: 10 mile(s):0
Sky conditions: clear
Temperature: 43.0 F (6.1 C)
Dew Point: 28.0 F (-2.2 C)
Relative Humidity: 55%
Pressure (altimeter): 30.39 in. Hg (1029 hPa)
ob: KWWD 222155Z AUTO 31004KT 10SM CLR 06/M02 A3039 RMK AO2 SLP293 T00611022
cycle: 22

Station Type Date Time Source
KWWD TAF UTC NOAA

Error!


Example: see airport list